sensor_id;sensor_type;location;lat;lon;timestamp;P1;durP1;ratioP1;P2;durP2;ratioP2
24813;SDS011;12904;50.088;11.414;2023-02-11T00:01:48;125.78;;;49.22;;
24813;SDS011;12904;50.088;11.414;2023-02-11T00:04:13;122.47;;;48.63;;
24813;SDS011;12904;50.088;11.414;2023-02-11T00:06:39;126.80;;;49.78;;
24813;SDS011;12904;50.088;11.414;2023-02-11T00:09:05;125.45;;;48.53;;
24813;SDS011;12904;50.088;11.414;2023-02-11T00:11:31;127.88;;;49.20;;
24813;SDS011;12904;50.088;11.414;2023-02-11T00:14:01;117.00;;;44.67;;
24813;SDS011;12904;50.088;11.414;2023-02-11T00:16:29;120.28;;;46.88;;
24813;SDS011;12904;50.088;11.414;2023-02-11T00:18:57;116.60;;;47.42;;
24813;SDS011;12904;50.088;11.414;2023-02-11T00:21:24;121.20;;;46.50;;
24813;SDS011;12904;50.088;11.414;2023-02-11T00:23:51;135.40;;;50.42;;
24813;SDS011;12904;50.088;11.414;2023-02-11T00:26:21;123.20;;;47.95;;
24813;SDS011;12904;50.088;11.414;2023-02-11T00:28:51;115.15;;;46.97;;
24813;SDS011;12904;50.088;11.414;2023-02-11T00:31:18;129.25;;;47.97;;
24813;SDS011;12904;50.088;11.414;2023-02-11T00:33:45;122.88;;;49.63;;
24813;SDS011;12904;50.088;11.414;2023-02-11T00:36:13;128.30;;;48.30;;
24813;SDS011;12904;50.088;11.414;2023-02-11T00:38:44;132.63;;;48.88;;
24813;SDS011;12904;50.088;11.414;2023-02-11T00:41:11;124.43;;;49.77;;
24813;SDS011;12904;50.088;11.414;2023-02-11T00:43:38;121.93;;;46.72;;
24813;SDS011;12904;50.088;11.414;2023-02-11T00:46:04;120.20;;;46.80;;
24813;SDS011;12904;50.088;11.414;2023-02-11T00:48:30;110.05;;;43.58;;
24813;SDS011;12904;50.088;11.414;2023-02-11T00:50:56;121.05;;;46.38;;
24813;SDS011;12904;50.088;11.414;2023-02-11T00:53:22;112.97;;;44.90;;
24813;SDS011;12904;50.088;11.414;2023-02-11T00:55:48;115.32;;;46.22;;
24813;SDS011;12904;50.088;11.414;2023-02-11T00:58:13;108.22;;;45.15;;
24813;SDS011;12904;50.088;11.414;2023-02-11T01:00:39;120.63;;;45.10;;
24813;SDS011;12904;50.088;11.414;2023-02-11T01:03:05;124.10;;;48.90;;
24813;SDS011;12904;50.088;11.414;2023-02-11T01:05:30;121.43;;;46.28;;
24813;SDS011;12904;50.088;11.414;2023-02-11T01:07:56;129.55;;;48.65;;
24813;SDS011;12904;50.088;11.414;2023-02-11T01:10:22;118.32;;;47.22;;
24813;SDS011;12904;50.088;11.414;2023-02-11T01:12:48;121.25;;;47.25;;
24813;SDS011;12904;50.088;11.414;2023-02-11T01:15:15;111.65;;;46.30;;
24813;SDS011;12904;50.088;11.414;2023-02-11T01:17:41;111.25;;;45.28;;
24813;SDS011;12904;50.088;11.414;2023-02-11T01:20:11;108.32;;;45.15;;
24813;SDS011;12904;50.088;11.414;2023-02-11T01:22:39;111.25;;;44.33;;
24813;SDS011;12904;50.088;11.414;2023-02-11T01:25:06;103.13;;;42.72;;
24813;SDS011;12904;50.088;11.414;2023-02-11T01:27:32;110.70;;;46.80;;
24813;SDS011;12904;50.088;11.414;2023-02-11T01:29:58;100.43;;;43.22;;
24813;SDS011;12904;50.088;11.414;2023-02-11T01:32:24;104.20;;;45.85;;
24813;SDS011;12904;50.088;11.414;2023-02-11T01:34:49;103.28;;;42.95;;
24813;SDS011;12904;50.088;11.414;2023-02-11T01:37:15;103.50;;;43.78;;
24813;SDS011;12904;50.088;11.414;2023-02-11T01:39:41;100.65;;;42.90;;
24813;SDS011;12904;50.088;11.414;2023-02-11T01:42:06;103.13;;;44.55;;
24813;SDS011;12904;50.088;11.414;2023-02-11T01:44:36;104.10;;;42.22;;
24813;SDS011;12904;50.088;11.414;2023-02-11T01:47:04;103.03;;;41.92;;
24813;SDS011;12904;50.088;11.414;2023-02-11T01:49:31;106.47;;;45.00;;
24813;SDS011;12904;50.088;11.414;2023-02-11T01:52:20;100.32;;;43.35;;
24813;SDS011;12904;50.088;11.414;2023-02-11T01:54:51;95.43;;;41.08;;
24813;SDS011;12904;50.088;11.414;2023-02-11T01:57:44;98.78;;;42.00;;
24813;SDS011;12904;50.088;11.414;2023-02-11T02:00:26;111.00;;;44.40;;
24813;SDS011;12904;50.088;11.414;2023-02-11T02:08:28;104.70;;;43.60;;
24813;SDS011;12904;50.088;11.414;2023-02-11T02:13:29;103.00;;;42.35;;
24813;SDS011;12904;50.088;11.414;2023-02-11T02:15:59;105.60;;;43.35;;
24813;SDS011;12904;50.088;11.414;2023-02-11T02:38:00;104.60;;;44.80;;
24813;SDS011;12904;50.088;11.414;2023-02-11T02:40:38;104.97;;;43.42;;
24813;SDS011;12904;50.088;11.414;2023-02-11T02:43:09;101.70;;;43.75;;
24813;SDS011;12904;50.088;11.414;2023-02-11T02:45:35;102.03;;;42.80;;
24813;SDS011;12904;50.088;11.414;2023-02-11T02:48:01;112.82;;;42.85;;
24813;SDS011;12904;50.088;11.414;2023-02-11T02:50:28;95.72;;;39.92;;
24813;SDS011;12904;50.088;11.414;2023-02-11T03:09:30;97.55;;;40.45;;
24813;SDS011;12904;50.088;11.414;2023-02-11T03:12:06;95.25;;;39.95;;
24813;SDS011;12904;50.088;11.414;2023-02-11T03:14:34;98.75;;;41.17;;
24813;SDS011;12904;50.088;11.414;2023-02-11T03:17:00;95.43;;;40.33;;
24813;SDS011;12904;50.088;11.414;2023-02-11T03:19:35;115.35;;;45.10;;
24813;SDS011;12904;50.088;11.414;2023-02-11T03:22:06;106.75;;;45.70;;
24813;SDS011;12904;50.088;11.414;2023-02-11T03:24:36;102.30;;;42.20;;
24813;SDS011;12904;50.088;11.414;2023-02-11T03:30:05;97.15;;;41.65;;
24813;SDS011;12904;50.088;11.414;2023-02-11T03:32:36;115.75;;;44.35;;
24813;SDS011;12904;50.088;11.414;2023-02-11T03:37:51;94.40;;;39.72;;
24813;SDS011;12904;50.088;11.414;2023-02-11T03:40:25;96.63;;;38.92;;
24813;SDS011;12904;50.088;11.414;2023-02-11T03:43:04;96.60;;;41.33;;
24813;SDS011;12904;50.088;11.414;2023-02-11T03:45:34;101.53;;;42.28;;
24813;SDS011;12904;50.088;11.414;2023-02-11T03:48:03;98.40;;;39.95;;
24813;SDS011;12904;50.088;11.414;2023-02-11T03:50:35;92.35;;;40.80;;
24813;SDS011;12904;50.088;11.414;2023-02-11T03:53:02;88.78;;;39.20;;
24813;SDS011;12904;50.088;11.414;2023-02-11T03:55:29;100.75;;;41.85;;
24813;SDS011;12904;50.088;11.414;2023-02-11T03:57:59;97.80;;;40.03;;
24813;SDS011;12904;50.088;11.414;2023-02-11T04:00:32;95.18;;;41.35;;
24813;SDS011;12904;50.088;11.414;2023-02-11T04:03:00;101.00;;;42.28;;
24813;SDS011;12904;50.088;11.414;2023-02-11T04:05:26;100.22;;;41.20;;
24813;SDS011;12904;50.088;11.414;2023-02-11T04:07:52;102.03;;;41.50;;
24813;SDS011;12904;50.088;11.414;2023-02-11T04:10:18;107.88;;;42.42;;
24813;SDS011;12904;50.088;11.414;2023-02-11T04:12:44;122.80;;;46.03;;
24813;SDS011;12904;50.088;11.414;2023-02-11T04:15:09;104.15;;;42.78;;
24813;SDS011;12904;50.088;11.414;2023-02-11T04:17:35;96.43;;;41.97;;
24813;SDS011;12904;50.088;11.414;2023-02-11T04:20:01;98.65;;;40.03;;
24813;SDS011;12904;50.088;11.414;2023-02-11T04:22:28;92.35;;;39.17;;
24813;SDS011;12904;50.088;11.414;2023-02-11T04:24:54;95.78;;;40.25;;
24813;SDS011;12904;50.088;11.414;2023-02-11T04:27:19;94.63;;;40.55;;
24813;SDS011;12904;50.088;11.414;2023-02-11T04:29:45;85.00;;;37.83;;
24813;SDS011;12904;50.088;11.414;2023-02-11T04:32:11;87.20;;;36.63;;
24813;SDS011;12904;50.088;11.414;2023-02-11T04:34:37;107.88;;;39.75;;
24813;SDS011;12904;50.088;11.414;2023-02-11T04:37:02;87.65;;;38.80;;
24813;SDS011;12904;50.088;11.414;2023-02-11T04:39:28;90.47;;;38.03;;
24813;SDS011;12904;50.088;11.414;2023-02-11T04:41:54;82.90;;;36.88;;
24813;SDS011;12904;50.088;11.414;2023-02-11T04:44:19;84.07;;;35.53;;
24813;SDS011;12904;50.088;11.414;2023-02-11T04:46:45;86.15;;;35.90;;
24813;SDS011;12904;50.088;11.414;2023-02-11T04:49:11;86.70;;;38.20;;
24813;SDS011;12904;50.088;11.414;2023-02-11T04:51:38;90.85;;;38.30;;
24813;SDS011;12904;50.088;11.414;2023-02-11T04:54:04;84.13;;;36.67;;
24813;SDS011;12904;50.088;11.414;2023-02-11T04:56:30;87.40;;;36.15;;
24813;SDS011;12904;50.088;11.414;2023-02-11T04:58:56;86.32;;;37.20;;
24813;SDS011;12904;50.088;11.414;2023-02-11T05:01:21;90.78;;;37.20;;
24813;SDS011;12904;50.088;11.414;2023-02-11T05:03:47;78.90;;;36.83;;
24813;SDS011;12904;50.088;11.414;2023-02-11T05:06:13;84.45;;;36.58;;
24813;SDS011;12904;50.088;11.414;2023-02-11T05:08:39;91.47;;;39.83;;
24813;SDS011;12904;50.088;11.414;2023-02-11T05:11:05;86.38;;;39.10;;
24813;SDS011;12904;50.088;11.414;2023-02-11T05:13:31;83.43;;;36.58;;
24813;SDS011;12904;50.088;11.414;2023-02-11T05:15:57;82.72;;;39.88;;
24813;SDS011;12904;50.088;11.414;2023-02-11T05:18:23;79.10;;;36.55;;
24813;SDS011;12904;50.088;11.414;2023-02-11T05:20:49;92.90;;;39.20;;
24813;SDS011;12904;50.088;11.414;2023-02-11T05:23:14;85.25;;;37.45;;
24813;SDS011;12904;50.088;11.414;2023-02-11T05:25:40;83.95;;;36.83;;
24813;SDS011;12904;50.088;11.414;2023-02-11T05:28:05;88.63;;;37.90;;
24813;SDS011;12904;50.088;11.414;2023-02-11T05:30:31;86.43;;;38.03;;
24813;SDS011;12904;50.088;11.414;2023-02-11T05:32:58;86.25;;;38.42;;
24813;SDS011;12904;50.088;11.414;2023-02-11T05:35:23;86.22;;;38.88;;
24813;SDS011;12904;50.088;11.414;2023-02-11T05:37:49;88.47;;;38.03;;
24813;SDS011;12904;50.088;11.414;2023-02-11T05:40:15;86.35;;;37.75;;
24813;SDS011;12904;50.088;11.414;2023-02-11T05:42:40;85.57;;;37.90;;
24813;SDS011;12904;50.088;11.414;2023-02-11T05:45:06;81.50;;;36.92;;
24813;SDS011;12904;50.088;11.414;2023-02-11T05:47:32;77.35;;;37.47;;
24813;SDS011;12904;50.088;11.414;2023-02-11T05:49:58;83.32;;;36.92;;
24813;SDS011;12904;50.088;11.414;2023-02-11T05:52:23;81.15;;;37.20;;
24813;SDS011;12904;50.088;11.414;2023-02-11T05:54:49;87.45;;;36.78;;
24813;SDS011;12904;50.088;11.414;2023-02-11T05:57:15;82.18;;;37.80;;
24813;SDS011;12904;50.088;11.414;2023-02-11T05:59:41;82.35;;;37.88;;
24813;SDS011;12904;50.088;11.414;2023-02-11T06:02:07;81.22;;;37.90;;
24813;SDS011;12904;50.088;11.414;2023-02-11T06:04:34;75.55;;;35.75;;
24813;SDS011;12904;50.088;11.414;2023-02-11T06:07:00;92.78;;;38.47;;
24813;SDS011;12904;50.088;11.414;2023-02-11T06:09:26;73.80;;;34.35;;
24813;SDS011;12904;50.088;11.414;2023-02-11T06:11:52;80.50;;;35.60;;
24813;SDS011;12904;50.088;11.414;2023-02-11T06:14:18;83.20;;;37.58;;
24813;SDS011;12904;50.088;11.414;2023-02-11T06:16:44;77.07;;;34.92;;
24813;SDS011;12904;50.088;11.414;2023-02-11T06:19:10;69.55;;;32.83;;
24813;SDS011;12904;50.088;11.414;2023-02-11T06:21:36;76.10;;;34.55;;
24813;SDS011;12904;50.088;11.414;2023-02-11T06:24:03;70.28;;;33.22;;
24813;SDS011;12904;50.088;11.414;2023-02-11T06:26:30;77.97;;;35.03;;
24813;SDS011;12904;50.088;11.414;2023-02-11T06:28:58;71.43;;;33.05;;
24813;SDS011;12904;50.088;11.414;2023-02-11T06:31:24;75.80;;;33.80;;
24813;SDS011;12904;50.088;11.414;2023-02-11T06:33:50;77.80;;;34.78;;
24813;SDS011;12904;50.088;11.414;2023-02-11T06:36:17;78.50;;;35.47;;
24813;SDS011;12904;50.088;11.414;2023-02-11T06:38:44;87.15;;;37.08;;
24813;SDS011;12904;50.088;11.414;2023-02-11T06:41:11;78.72;;;33.58;;
24813;SDS011;12904;50.088;11.414;2023-02-11T06:43:38;79.00;;;35.28;;
24813;SDS011;12904;50.088;11.414;2023-02-11T06:46:04;76.05;;;33.25;;
24813;SDS011;12904;50.088;11.414;2023-02-11T06:48:30;73.03;;;34.03;;
24813;SDS011;12904;50.088;11.414;2023-02-11T06:51:00;74.45;;;34.85;;
24813;SDS011;12904;50.088;11.414;2023-02-11T06:53:30;69.03;;;32.97;;
24813;SDS011;12904;50.088;11.414;2023-02-11T06:56:00;83.03;;;34.55;;
24813;SDS011;12904;50.088;11.414;2023-02-11T06:58:27;81.80;;;35.00;;
24813;SDS011;12904;50.088;11.414;2023-02-11T07:00:53;78.90;;;34.55;;
24813;SDS011;12904;50.088;11.414;2023-02-11T07:03:18;73.25;;;34.03;;
24813;SDS011;12904;50.088;11.414;2023-02-11T07:05:44;79.57;;;35.38;;
24813;SDS011;12904;50.088;11.414;2023-02-11T07:08:09;70.60;;;33.85;;
24813;SDS011;12904;50.088;11.414;2023-02-11T07:10:35;67.65;;;32.83;;
24813;SDS011;12904;50.088;11.414;2023-02-11T07:13:01;73.07;;;32.58;;
24813;SDS011;12904;50.088;11.414;2023-02-11T07:15:26;72.97;;;32.85;;
24813;SDS011;12904;50.088;11.414;2023-02-11T07:17:52;68.25;;;32.85;;
24813;SDS011;12904;50.088;11.414;2023-02-11T07:20:17;61.25;;;31.20;;
24813;SDS011;12904;50.088;11.414;2023-02-11T07:22:43;72.35;;;32.28;;
24813;SDS011;12904;50.088;11.414;2023-02-11T07:25:09;67.13;;;33.70;;
24813;SDS011;12904;50.088;11.414;2023-02-11T07:27:34;67.07;;;32.22;;
24813;SDS011;12904;50.088;11.414;2023-02-11T07:30:00;70.65;;;32.70;;
24813;SDS011;12904;50.088;11.414;2023-02-11T07:32:25;71.53;;;33.38;;
24813;SDS011;12904;50.088;11.414;2023-02-11T07:34:51;76.22;;;33.75;;
24813;SDS011;12904;50.088;11.414;2023-02-11T07:37:17;69.07;;;31.70;;
24813;SDS011;12904;50.088;11.414;2023-02-11T07:39:43;68.78;;;32.85;;
24813;SDS011;12904;50.088;11.414;2023-02-11T07:42:08;74.22;;;33.30;;
24813;SDS011;12904;50.088;11.414;2023-02-11T07:44:34;66.10;;;31.17;;
24813;SDS011;12904;50.088;11.414;2023-02-11T07:47:00;73.93;;;32.25;;
24813;SDS011;12904;50.088;11.414;2023-02-11T07:49:27;68.93;;;31.65;;
24813;SDS011;12904;50.088;11.414;2023-02-11T07:51:52;71.10;;;32.78;;
24813;SDS011;12904;50.088;11.414;2023-02-11T07:54:18;63.08;;;31.52;;
24813;SDS011;12904;50.088;11.414;2023-02-11T07:56:44;62.20;;;31.63;;
24813;SDS011;12904;50.088;11.414;2023-02-11T07:59:10;74.93;;;33.50;;
24813;SDS011;12904;50.088;11.414;2023-02-11T08:01:36;63.80;;;31.05;;
24813;SDS011;12904;50.088;11.414;2023-02-11T08:04:02;65.97;;;31.25;;
24813;SDS011;12904;50.088;11.414;2023-02-11T08:06:29;68.80;;;32.33;;
24813;SDS011;12904;50.088;11.414;2023-02-11T08:08:57;65.78;;;30.83;;
24813;SDS011;12904;50.088;11.414;2023-02-11T08:11:27;63.50;;;30.70;;
24813;SDS011;12904;50.088;11.414;2023-02-11T08:13:54;68.13;;;31.77;;
24813;SDS011;12904;50.088;11.414;2023-02-11T08:16:21;68.20;;;32.20;;
24813;SDS011;12904;50.088;11.414;2023-02-11T08:19:12;66.35;;;30.83;;
24813;SDS011;12904;50.088;11.414;2023-02-11T08:21:39;57.15;;;30.05;;
24813;SDS011;12904;50.088;11.414;2023-02-11T08:24:05;64.47;;;30.75;;
24813;SDS011;12904;50.088;11.414;2023-02-11T08:26:32;58.97;;;29.65;;
24813;SDS011;12904;50.088;11.414;2023-02-11T08:29:02;68.00;;;30.85;;
24813;SDS011;12904;50.088;11.414;2023-02-11T08:31:33;70.18;;;30.73;;
24813;SDS011;12904;50.088;11.414;2023-02-11T08:34:01;66.20;;;32.13;;
24813;SDS011;12904;50.088;11.414;2023-02-11T08:36:28;65.05;;;32.88;;
24813;SDS011;12904;50.088;11.414;2023-02-11T08:38:56;65.65;;;31.85;;
24813;SDS011;12904;50.088;11.414;2023-02-11T08:41:23;67.20;;;32.80;;
24813;SDS011;12904;50.088;11.414;2023-02-11T08:43:49;97.60;;;44.70;;
24813;SDS011;12904;50.088;11.414;2023-02-11T08:46:16;65.95;;;32.13;;
24813;SDS011;12904;50.088;11.414;2023-02-11T08:48:43;56.20;;;28.42;;
24813;SDS011;12904;50.088;11.414;2023-02-11T08:51:11;62.03;;;30.90;;
24813;SDS011;12904;50.088;11.414;2023-02-11T08:53:38;54.17;;;27.13;;
24813;SDS011;12904;50.088;11.414;2023-02-11T08:56:04;54.75;;;29.00;;
24813;SDS011;12904;50.088;11.414;2023-02-11T08:58:30;51.88;;;26.67;;
24813;SDS011;12904;50.088;11.414;2023-02-11T09:00:57;57.10;;;27.58;;
24813;SDS011;12904;50.088;11.414;2023-02-11T09:03:22;52.53;;;28.75;;
24813;SDS011;12904;50.088;11.414;2023-02-11T09:05:49;55.13;;;27.67;;
24813;SDS011;12904;50.088;11.414;2023-02-11T09:08:17;51.45;;;26.35;;
24813;SDS011;12904;50.088;11.414;2023-02-11T09:10:44;48.42;;;27.50;;
24813;SDS011;12904;50.088;11.414;2023-02-11T09:13:10;45.85;;;25.02;;
24813;SDS011;12904;50.088;11.414;2023-02-11T09:15:36;51.60;;;25.40;;
24813;SDS011;12904;50.088;11.414;2023-02-11T09:18:02;43.75;;;24.80;;
24813;SDS011;12904;50.088;11.414;2023-02-11T09:20:28;52.40;;;26.45;;
24813;SDS011;12904;50.088;11.414;2023-02-11T09:22:55;57.80;;;28.23;;
24813;SDS011;12904;50.088;11.414;2023-02-11T09:25:22;52.03;;;27.42;;
24813;SDS011;12904;50.088;11.414;2023-02-11T09:27:48;50.60;;;26.80;;
24813;SDS011;12904;50.088;11.414;2023-02-11T09:30:15;46.20;;;25.92;;
24813;SDS011;12904;50.088;11.414;2023-02-11T09:32:40;54.85;;;26.52;;
24813;SDS011;12904;50.088;11.414;2023-02-11T09:35:06;50.00;;;26.58;;
24813;SDS011;12904;50.088;11.414;2023-02-11T09:37:32;50.80;;;25.00;;
24813;SDS011;12904;50.088;11.414;2023-02-11T09:39:57;54.83;;;27.35;;
24813;SDS011;12904;50.088;11.414;2023-02-11T09:45:11;43.45;;;24.13;;
24813;SDS011;12904;50.088;11.414;2023-02-11T09:47:47;51.15;;;26.45;;
24813;SDS011;12904;50.088;11.414;2023-02-11T09:50:25;49.00;;;25.55;;
24813;SDS011;12904;50.088;11.414;2023-02-11T09:52:57;50.38;;;26.30;;
24813;SDS011;12904;50.088;11.414;2023-02-11T09:55:41;48.88;;;26.15;;
24813;SDS011;12904;50.088;11.414;2023-02-11T09:58:12;42.40;;;24.70;;
24813;SDS011;12904;50.088;11.414;2023-02-11T10:00:47;41.30;;;25.40;;
24813;SDS011;12904;50.088;11.414;2023-02-11T10:21:43;44.53;;;25.23;;
24813;SDS011;12904;50.088;11.414;2023-02-11T10:24:16;46.47;;;24.52;;
24813;SDS011;12904;50.088;11.414;2023-02-11T10:26:43;46.00;;;27.08;;
24813;SDS011;12904;50.088;11.414;2023-02-11T10:29:30;48.78;;;26.75;;
24813;SDS011;12904;50.088;11.414;2023-02-11T10:32:13;63.15;;;32.85;;
24813;SDS011;12904;50.088;11.414;2023-02-11T10:34:50;65.82;;;31.63;;
24813;SDS011;12904;50.088;11.414;2023-02-11T10:37:18;62.97;;;31.40;;
24813;SDS011;12904;50.088;11.414;2023-02-11T10:39:43;58.67;;;32.63;;
24813;SDS011;12904;50.088;11.414;2023-02-11T10:42:10;62.70;;;33.50;;
24813;SDS011;12904;50.088;11.414;2023-02-11T10:44:38;65.57;;;33.17;;
24813;SDS011;12904;50.088;11.414;2023-02-11T10:47:19;59.33;;;30.83;;
24813;SDS011;12904;50.088;11.414;2023-02-11T10:49:47;51.88;;;29.38;;
24813;SDS011;12904;50.088;11.414;2023-02-11T10:54:39;61.78;;;33.63;;
24813;SDS011;12904;50.088;11.414;2023-02-11T10:57:04;61.70;;;31.67;;
24813;SDS011;12904;50.088;11.414;2023-02-11T11:04:43;54.15;;;28.80;;
24813;SDS011;12904;50.088;11.414;2023-02-11T11:09:46;57.42;;;30.63;;
24813;SDS011;12904;50.088;11.414;2023-02-11T11:12:24;61.33;;;32.42;;
24813;SDS011;12904;50.088;11.414;2023-02-11T11:17:46;59.95;;;32.22;;
24813;SDS011;12904;50.088;11.414;2023-02-11T11:20:26;60.53;;;31.40;;
24813;SDS011;12904;50.088;11.414;2023-02-11T11:25:43;63.50;;;34.38;;
24813;SDS011;12904;50.088;11.414;2023-02-11T11:28:30;58.22;;;32.78;;
24813;SDS011;12904;50.088;11.414;2023-02-11T11:31:03;58.53;;;32.10;;
24813;SDS011;12904;50.088;11.414;2023-02-11T11:33:30;54.90;;;30.58;;
24813;SDS011;12904;50.088;11.414;2023-02-11T11:38:30;62.92;;;30.98;;
24813;SDS011;12904;50.088;11.414;2023-02-11T11:43:55;50.42;;;27.83;;
24813;SDS011;12904;50.088;11.414;2023-02-11T11:46:22;49.60;;;27.60;;
24813;SDS011;12904;50.088;11.414;2023-02-11T11:49:31;42.95;;;26.05;;
24813;SDS011;12904;50.088;11.414;2023-02-11T11:54:42;57.70;;;29.08;;
24813;SDS011;12904;50.088;11.414;2023-02-11T11:59:41;50.90;;;29.35;;
24813;SDS011;12904;50.088;11.414;2023-02-11T12:05:10;60.65;;;33.47;;
24813;SDS011;12904;50.088;11.414;2023-02-11T12:07:49;64.15;;;32.47;;
24813;SDS011;12904;50.088;11.414;2023-02-11T12:13:43;53.75;;;28.15;;
24813;SDS011;12904;50.088;11.414;2023-02-11T12:16:17;58.30;;;30.38;;
24813;SDS011;12904;50.088;11.414;2023-02-11T12:54:37;51.83;;;28.02;;
24813;SDS011;12904;50.088;11.414;2023-02-11T12:59:57;58.88;;;28.42;;
24813;SDS011;12904;50.088;11.414;2023-02-11T13:05:32;54.92;;;28.45;;
24813;SDS011;12904;50.088;11.414;2023-02-11T13:11:22;53.72;;;27.15;;
24813;SDS011;12904;50.088;11.414;2023-02-11T13:13:51;57.55;;;30.10;;
24813;SDS011;12904;50.088;11.414;2023-02-11T13:16:43;49.85;;;27.67;;
24813;SDS011;12904;50.088;11.414;2023-02-11T13:24:42;65.20;;;31.35;;
24813;SDS011;12904;50.088;11.414;2023-02-11T13:35:32;52.72;;;29.52;;
24813;SDS011;12904;50.088;11.414;2023-02-11T13:37:59;55.67;;;29.15;;
24813;SDS011;12904;50.088;11.414;2023-02-11T13:40:40;56.30;;;30.00;;
24813;SDS011;12904;50.088;11.414;2023-02-11T13:43:18;53.88;;;28.95;;
24813;SDS011;12904;50.088;11.414;2023-02-11T13:45:46;58.45;;;29.95;;
24813;SDS011;12904;50.088;11.414;2023-02-11T13:50:54;55.85;;;28.73;;
24813;SDS011;12904;50.088;11.414;2023-02-11T13:53:23;51.67;;;27.15;;
24813;SDS011;12904;50.088;11.414;2023-02-11T13:55:52;47.58;;;28.00;;
24813;SDS011;12904;50.088;11.414;2023-02-11T14:00:54;61.83;;;28.42;;
24813;SDS011;12904;50.088;11.414;2023-02-11T14:03:21;52.70;;;27.77;;
24813;SDS011;12904;50.088;11.414;2023-02-11T14:16:15;51.85;;;28.70;;
24813;SDS011;12904;50.088;11.414;2023-02-11T14:23:51;52.72;;;29.98;;
24813;SDS011;12904;50.088;11.414;2023-02-11T14:28:44;59.95;;;31.10;;
24813;SDS011;12904;50.088;11.414;2023-02-11T14:31:34;52.47;;;31.10;;
24813;SDS011;12904;50.088;11.414;2023-02-11T14:34:13;60.13;;;33.03;;
24813;SDS011;12904;50.088;11.414;2023-02-11T14:42:21;51.95;;;28.42;;
24813;SDS011;12904;50.088;11.414;2023-02-11T14:44:51;51.28;;;28.60;;
24813;SDS011;12904;50.088;11.414;2023-02-11T14:47:23;60.55;;;32.63;;
24813;SDS011;12904;50.088;11.414;2023-02-11T14:49:54;53.65;;;29.52;;
24813;SDS011;12904;50.088;11.414;2023-02-11T14:54:55;56.92;;;29.15;;
24813;SDS011;12904;50.088;11.414;2023-02-11T14:57:36;54.38;;;30.65;;
24813;SDS011;12904;50.088;11.414;2023-02-11T15:00:04;51.75;;;28.38;;
24813;SDS011;12904;50.088;11.414;2023-02-11T15:02:38;49.97;;;27.20;;
24813;SDS011;12904;50.088;11.414;2023-02-11T15:08:02;79.85;;;36.45;;
24813;SDS011;12904;50.088;11.414;2023-02-11T15:12:57;57.65;;;29.75;;
24813;SDS011;12904;50.088;11.414;2023-02-11T15:15:25;56.85;;;30.63;;
24813;SDS011;12904;50.088;11.414;2023-02-11T15:17:51;53.38;;;30.35;;
24813;SDS011;12904;50.088;11.414;2023-02-11T15:20:21;58.53;;;28.98;;
24813;SDS011;12904;50.088;11.414;2023-02-11T15:22:50;84.82;;;40.22;;
24813;SDS011;12904;50.088;11.414;2023-02-11T15:25:29;85.63;;;40.10;;
24813;SDS011;12904;50.088;11.414;2023-02-11T15:27:56;66.95;;;32.80;;
24813;SDS011;12904;50.088;11.414;2023-02-11T15:32:52;59.92;;;31.90;;
24813;SDS011;12904;50.088;11.414;2023-02-11T15:35:23;59.38;;;32.05;;
24813;SDS011;12904;50.088;11.414;2023-02-11T15:37:55;59.78;;;31.98;;
24813;SDS011;12904;50.088;11.414;2023-02-11T15:40:29;88.35;;;41.83;;
24813;SDS011;12904;50.088;11.414;2023-02-11T15:43:04;97.80;;;46.40;;
24813;SDS011;12904;50.088;11.414;2023-02-11T15:50:36;101.38;;;47.22;;
24813;SDS011;12904;50.088;11.414;2023-02-11T15:53:16;105.15;;;50.35;;
24813;SDS011;12904;50.088;11.414;2023-02-11T16:00:53;89.38;;;45.10;;
24813;SDS011;12904;50.088;11.414;2023-02-11T16:03:24;83.53;;;38.45;;
24813;SDS011;12904;50.088;11.414;2023-02-11T16:05:53;71.18;;;37.88;;
24813;SDS011;12904;50.088;11.414;2023-02-11T16:11:17;77.07;;;35.72;;
24813;SDS011;12904;50.088;11.414;2023-02-11T16:13:47;74.90;;;35.88;;
24813;SDS011;12904;50.088;11.414;2023-02-11T16:16:20;68.10;;;34.72;;
24813;SDS011;12904;50.088;11.414;2023-02-11T16:18:52;67.07;;;33.67;;
24813;SDS011;12904;50.088;11.414;2023-02-11T16:21:20;60.53;;;34.55;;
24813;SDS011;12904;50.088;11.414;2023-02-11T16:23:54;68.72;;;35.47;;
24813;SDS011;12904;50.088;11.414;2023-02-11T16:26:29;66.43;;;34.17;;
24813;SDS011;12904;50.088;11.414;2023-02-11T16:29:01;66.45;;;34.38;;
24813;SDS011;12904;50.088;11.414;2023-02-11T16:31:32;68.43;;;33.55;;
24813;SDS011;12904;50.088;11.414;2023-02-11T16:33:59;65.53;;;34.50;;
24813;SDS011;12904;50.088;11.414;2023-02-11T16:36:25;69.18;;;34.63;;
24813;SDS011;12904;50.088;11.414;2023-02-11T16:38:51;63.28;;;33.88;;
24813;SDS011;12904;50.088;11.414;2023-02-11T16:41:16;67.18;;;32.22;;
24813;SDS011;12904;50.088;11.414;2023-02-11T16:43:42;60.67;;;32.15;;
24813;SDS011;12904;50.088;11.414;2023-02-11T16:46:09;61.58;;;34.20;;
24813;SDS011;12904;50.088;11.414;2023-02-11T16:48:39;63.42;;;34.72;;
24813;SDS011;12904;50.088;11.414;2023-02-11T16:51:04;67.05;;;32.35;;
24813;SDS011;12904;50.088;11.414;2023-02-11T16:53:33;67.60;;;34.40;;
24813;SDS011;12904;50.088;11.414;2023-02-11T16:55:58;64.70;;;33.17;;
24813;SDS011;12904;50.088;11.414;2023-02-11T16:58:24;62.42;;;32.70;;
24813;SDS011;12904;50.088;11.414;2023-02-11T17:00:50;61.50;;;31.92;;
24813;SDS011;12904;50.088;11.414;2023-02-11T17:03:17;73.97;;;33.78;;
24813;SDS011;12904;50.088;11.414;2023-02-11T17:05:46;59.45;;;31.80;;
24813;SDS011;12904;50.088;11.414;2023-02-11T17:08:12;59.42;;;31.85;;
24813;SDS011;12904;50.088;11.414;2023-02-11T17:10:38;77.30;;;39.65;;
24813;SDS011;12904;50.088;11.414;2023-02-11T17:13:03;85.13;;;39.55;;
24813;SDS011;12904;50.088;11.414;2023-02-11T17:15:32;78.78;;;37.75;;
24813;SDS011;12904;50.088;11.414;2023-02-11T17:17:58;59.92;;;32.38;;
24813;SDS011;12904;50.088;11.414;2023-02-11T17:20:24;82.97;;;41.78;;
24813;SDS011;12904;50.088;11.414;2023-02-11T17:22:50;72.07;;;36.70;;
24813;SDS011;12904;50.088;11.414;2023-02-11T17:25:15;86.85;;;45.42;;
24813;SDS011;12904;50.088;11.414;2023-02-11T17:27:41;73.70;;;38.65;;
24813;SDS011;12904;50.088;11.414;2023-02-11T17:30:07;80.95;;;40.42;;
24813;SDS011;12904;50.088;11.414;2023-02-11T17:32:35;81.82;;;39.88;;
24813;SDS011;12904;50.088;11.414;2023-02-11T17:35:01;77.35;;;39.92;;
24813;SDS011;12904;50.088;11.414;2023-02-11T17:37:27;82.28;;;40.03;;
24813;SDS011;12904;50.088;11.414;2023-02-11T17:39:52;81.25;;;40.90;;
24813;SDS011;12904;50.088;11.414;2023-02-11T17:42:18;94.07;;;47.45;;
24813;SDS011;12904;50.088;11.414;2023-02-11T17:44:44;93.68;;;45.60;;
24813;SDS011;12904;50.088;11.414;2023-02-11T17:47:10;97.78;;;46.20;;
24813;SDS011;12904;50.088;11.414;2023-02-11T17:49:36;99.00;;;46.65;;